Time;durP1;ratioP1;P1;durP2;ratioP2;P2;SDS_P1;SDS_P2;PMS_P1;PMS_P2;Temp;Humidity;BMP_temperature;BMP_pressure;BME280_temperature;BME280_humidity;BME280_pressure;Samples;Min_cycle;Max_cycle;Signal;HPM_P1;HPM_P2
2022/05/31 00:00:42;;;;;;;;;;;;;;;23.42;72.01;96935.16;592236;239;66539;-71
2022/05/31 00:03:09;;;;;;;;;;;;;;;23.42;72.38;96935.16;592302;239;68593;-70
2022/05/31 00:05:37;;;;;;;;;;;;;;;23.42;71.90;96938.63;592231;239;65502;-71
2022/05/31 00:08:05;;;;;;;;;;;;;;;23.42;72.23;96938.63;592226;239;68842;-70
2022/05/31 00:10:32;;;;;;;;;;;;;;;23.42;72.33;96943.99;592264;239;68644;-70
2022/05/31 00:13:00;;;;;;;;;;;;;;;23.42;72.47;96946.67;592271;239;65688;-71
2022/05/31 00:15:28;;;;;;;;;;;;;;;23.42;73.08;96945.88;592252;239;66322;-71
2022/05/31 00:17:56;;;;;;;;;;;;;;;23.42;72.45;96957.41;592251;239;66483;-71
2022/05/31 00:20:23;;;;;;;;;;;;;;;23.43;72.38;96966.23;592223;239;64096;-71
2022/05/31 00:22:51;;;;;;;;;;;;;;;23.42;72.41;96964.66;592240;239;69052;-71
2022/05/31 00:25:19;;;;;;;;;;;;;;;23.42;72.39;96970.02;592256;239;68557;-68
2022/05/31 00:27:46;;;;;;;;;;;;;;;23.41;72.79;96969.23;592310;239;63402;-68
2022/05/31 00:30:15;;;;;;;;;;;;;;;23.42;72.47;96967.34;592247;239;70949;-68
2022/05/31 00:32:45;;;;;;;;;;;;;;;23.41;72.36;96977.27;592273;239;66662;-68
2022/05/31 00:35:17;;;;;;;;;;;;;;;23.41;72.53;96969.23;592094;239;65483;-68
2022/05/31 00:37:45;;;;;;;;;;;;;;;23.41;72.54;96974.59;592316;239;68654;-69
2022/05/31 00:40:14;;;;;;;;;;;;;;;23.40;72.68;96970.30;592263;239;66645;-69
2022/05/31 00:42:55;;;;;;;;;;;;;;;23.42;72.46;96980.75;592310;239;64065;-69
2022/05/31 00:45:27;;;;;;;;;;;;;;;23.41;72.57;96973.80;592269;239;68646;-68
2022/05/31 00:47:54;;;;;;;;;;;;;;;23.42;72.52;96980.75;592091;239;68547;-68
2022/05/31 00:50:24;;;;;;;;;;;;;;;23.41;72.28;96987.20;592253;239;65349;-68
2022/05/31 00:52:53;;;;;;;;;;;;;;;23.41;72.42;96984.52;591909;236;68674;-68
2022/05/31 00:55:22;;;;;;;;;;;;;;;23.40;72.36;96983.70;592298;239;66585;-68
2022/05/31 00:57:51;;;;;;;;;;;;;;;23.41;72.01;96987.20;591331;239;63070;-68
2022/05/31 01:00:19;;;;;;;;;;;;;;;23.41;72.00;96989.89;592225;239;66524;-68
2022/05/31 01:02:49;;;;;;;;;;;;;;;23.41;71.59;97009.45;592291;239;66229;-68
2022/05/31 01:05:17;;;;;;;;;;;;;;;23.41;72.63;97003.30;592278;239;62995;-68
2022/05/31 01:07:44;;;;;;;;;;;;;;;23.40;71.78;96999.00;592250;239;66685;-68
2022/05/31 01:10:13;;;;;;;;;;;;;;;23.40;72.41;96993.64;592278;239;68828;-68
2022/05/31 01:13:00;;;;;;;;;;;;;;;23.41;72.00;97000.62;592380;239;39212;-69
2022/05/31 01:15:47;;;;;;;;;;;;;;;23.40;72.53;97005.16;592344;239;43355;-72
2022/05/31 01:18:32;;;;;;;;;;;;;;;23.39;72.56;96998.20;592342;239;40408;-71
2022/05/31 01:21:08;;;;;;;;;;;;;;;23.39;72.33;97002.78;588966;239;46622;-70
2022/05/31 01:23:43;;;;;;;;;;;;;;;23.40;72.23;97004.36;591652;239;51417;-68
2022/05/31 01:26:16;;;;;;;;;;;;;;;23.39;72.56;97014.30;590452;239;66231;-68
2022/05/31 01:28:54;;;;;;;;;;;;;;;23.39;72.14;97016.98;592362;239;65382;-70
2022/05/31 01:31:39;;;;;;;;;;;;;;;23.38;72.43;97001.98;592216;239;66232;-70
2022/05/31 01:34:20;;;;;;;;;;;;;;;23.39;72.72;97005.46;592190;239;68802;-68
2022/05/31 01:36:52;;;;;;;;;;;;;;;23.39;72.65;97002.78;592169;239;66444;-68
2022/05/31 01:39:27;;;;;;;;;;;;;;;23.38;72.26;97004.67;592292;239;69077;-68
2022/05/31 01:41:59;;;;;;;;;;;;;;;23.38;72.51;96996.63;592198;239;68545;-68
2022/05/31 01:44:29;;;;;;;;;;;;;;;23.39;72.20;96997.41;592244;239;63478;-69
2022/05/31 01:46:57;;;;;;;;;;;;;;;23.39;72.19;96997.41;592296;239;68823;-68
2022/05/31 01:49:27;;;;;;;;;;;;;;;23.38;72.30;97004.67;592255;239;66481;-69
2022/05/31 01:51:54;;;;;;;;;;;;;;;23.38;72.47;96999.30;592273;239;65432;-69
2022/05/31 01:54:22;;;;;;;;;;;;;;;23.39;72.20;96989.37;592267;239;68679;-69
2022/05/31 01:56:51;;;;;;;;;;;;;;;23.39;72.28;96995.52;592268;239;66433;-69
2022/05/31 01:59:19;;;;;;;;;;;;;;;23.39;72.53;96997.41;592284;239;63067;-69
2022/05/31 02:01:47;;;;;;;;;;;;;;;23.38;71.94;97001.16;592254;239;68685;-68
2022/05/31 02:04:15;;;;;;;;;;;;;;;23.38;71.83;97003.84;592276;239;68691;-69
2022/05/31 02:06:44;;;;;;;;;;;;;;;23.38;72.39;97009.20;592247;239;65161;-69
2022/05/31 02:09:13;;;;;;;;;;;;;;;23.38;71.81;97020.76;592260;239;66578;-69
2022/05/31 02:11:41;;;;;;;;;;;;;;;23.39;71.80;97010.83;592254;239;66670;-68
2022/05/31 02:14:16;;;;;;;;;;;;;;;23.38;71.55;97012.71;592171;239;44124;-68
2022/05/31 02:16:44;;;;;;;;;;;;;;;23.39;72.26;97018.87;592293;239;66494;-68
2022/05/31 02:19:23;;;;;;;;;;;;;;;23.38;72.12;97017.25;591518;239;45417;-70
2022/05/31 02:21:54;;;;;;;;;;;;;;;23.38;72.15;97014.57;591875;239;47753;-71
2022/05/31 02:24:23;;;;;;;;;;;;;;;23.38;72.52;97011.89;592256;239;68734;-71
2022/05/31 02:26:51;;;;;;;;;;;;;;;23.38;72.13;96998.48;592243;239;68839;-71
2022/05/31 02:29:20;;;;;;;;;;;;;;;23.38;71.96;96998.48;592284;239;63098;-71
2022/05/31 02:31:48;;;;;;;;;;;;;;;23.39;72.16;97002.78;592261;239;66688;-71
2022/05/31 02:34:17;;;;;;;;;;;;;;;23.39;72.02;97005.46;592477;238;68636;-71
2022/05/31 02:36:44;;;;;;;;;;;;;;;23.37;71.72;96995.00;594848;238;63021;-71
2022/05/31 02:39:12;;;;;;;;;;;;;;;23.38;72.60;97001.16;594801;238;69642;-71
2022/05/31 02:41:41;;;;;;;;;;;;;;;23.37;71.78;96989.64;594895;238;68758;-71
2022/05/31 02:44:10;;;;;;;;;;;;;;;23.38;71.47;96993.94;594855;238;65377;-71
2022/05/31 02:46:37;;;;;;;;;;;;;;;23.38;71.16;96988.58;594864;238;68425;-71
2022/05/31 02:49:06;;;;;;;;;;;;;;;23.38;72.26;96993.12;594844;238;69080;-71
2022/05/31 02:51:36;;;;;;;;;;;;;;;23.38;71.74;96993.12;594785;238;62972;-71
2022/05/31 02:54:04;;;;;;;;;;;;;;;23.37;71.98;97000.38;595009;238;66587;-71
2022/05/31 02:56:40;;;;;;;;;;;;;;;23.37;71.99;97000.38;583869;238;48301;-72
2022/05/31 02:59:09;;;;;;;;;;;;;;;23.37;71.51;97005.73;594060;238;46487;-72
2022/05/31 03:01:49;;;;;;;;;;;;;;;23.37;72.05;97015.67;594074;238;46677;-72
2022/05/31 03:04:35;;;;;;;;;;;;;;;23.37;72.25;97007.63;594943;238;43160;-70
2022/05/31 03:07:21;;;;;;;;;;;;;;;23.37;71.63;97010.30;594923;238;39185;-71
2022/05/31 03:09:56;;;;;;;;;;;;;;;23.37;72.07;97010.30;594291;238;52523;-71
2022/05/31 03:12:26;;;;;;;;;;;;;;;23.36;72.31;97003.36;594865;238;68697;-70
2022/05/31 03:14:55;;;;;;;;;;;;;;;23.36;71.89;97008.72;594840;238;65332;-70
2022/05/31 03:17:30;;;;;;;;;;;;;;;23.36;72.00;97008.72;594793;238;67047;-71
2022/05/31 03:19:59;;;;;;;;;;;;;;;23.36;71.70;97016.77;594845;238;66588;-71
2022/05/31 03:22:28;;;;;;;;;;;;;;;23.35;71.42;97007.89;594804;238;63107;-69
2022/05/31 03:24:57;;;;;;;;;;;;;;;23.35;71.56;97013.26;594766;238;66425;-69
2022/05/31 03:27:27;;;;;;;;;;;;;;;23.35;72.01;97010.58;594883;238;68659;-69
2022/05/31 03:29:55;;;;;;;;;;;;;;;23.36;72.33;97014.08;594809;238;65417;-69
2022/05/31 03:32:23;;;;;;;;;;;;;;;23.37;71.86;97010.30;594829;238;66108;-69
2022/05/31 03:34:50;;;;;;;;;;;;;;;23.36;72.10;97011.40;593890;238;66234;-69
2022/05/31 03:37:18;;;;;;;;;;;;;;;23.35;71.95;97015.94;592240;239;62943;-69
2022/05/31 03:39:46;;;;;;;;;;;;;;;23.35;71.93;97023.98;592288;239;68717;-69
2022/05/31 03:42:13;;;;;;;;;;;;;;;23.35;71.82;97018.63;592226;239;66793;-69
2022/05/31 03:44:41;;;;;;;;;;;;;;;23.35;72.02;97020.51;592243;239;65418;-69
2022/05/31 03:47:23;;;;;;;;;;;;;;;23.35;71.99;97028.55;591429;239;50018;-69
2022/05/31 03:50:01;;;;;;;;;;;;;;;23.35;71.45;97023.19;585746;239;48464;-70
2022/05/31 03:52:29;;;;;;;;;;;;;;;23.36;71.72;97027.48;592130;239;65134;-69
2022/05/31 03:54:56;;;;;;;;;;;;;;;23.34;72.50;97027.77;592236;239;69653;-67
2022/05/31 03:57:32;;;;;;;;;;;;;;;23.35;71.54;97031.23;588975;239;49975;-65
2022/05/31 04:00:01;;;;;;;;;;;;;;;23.35;71.98;97031.23;592055;239;41998;-66
2022/05/31 04:02:31;;;;;;;;;;;;;;;23.35;72.21;97028.55;591728;239;47069;-66
2022/05/31 04:04:58;;;;;;;;;;;;;;;23.34;72.15;97021.61;592270;239;68511;-70
2022/05/31 04:07:26;;;;;;;;;;;;;;;23.35;72.06;97033.92;592316;239;65205;-70
2022/05/31 04:09:54;;;;;;;;;;;;;;;23.33;71.74;97026.17;592329;239;66578;-70
2022/05/31 04:12:21;;;;;;;;;;;;;;;23.34;71.63;97029.65;592268;239;69147;-70
2022/05/31 04:14:52;;;;;;;;;;;;;;;23.34;71.48;97021.61;591536;239;44138;-70
2022/05/31 04:17:19;;;;;;;;;;;;;;;23.33;71.58;97018.13;592253;239;69550;-70
2022/05/31 04:19:47;;;;;;;;;;;;;;;23.35;71.33;97025.88;592305;239;66644;-70
2022/05/31 04:22:15;;;;;;;;;;;;;;;23.34;71.64;97032.33;592331;239;63410;-70
2022/05/31 04:24:42;;;;;;;;;;;;;;;23.33;71.70;97026.17;592304;239;69327;-71
2022/05/31 04:27:24;;;;;;;;;;;;;;;23.34;71.43;97032.33;579463;239;49744;-70
2022/05/31 04:30:09;;;;;;;;;;;;;;;23.33;71.59;97023.49;573377;247;46488;-71
2022/05/31 04:32:57;;;;;;;;;;;;;;;23.34;71.09;97029.65;588628;239;49550;-71
2022/05/31 04:35:34;;;;;;;;;;;;;;;23.33;71.91;97025.38;593807;238;46910;-71
2022/05/31 04:38:03;;;;;;;;;;;;;;;23.32;71.92;97027.24;594814;238;62800;-71
2022/05/31 04:40:37;;;;;;;;;;;;;;;23.32;71.57;97029.13;589973;238;48494;-71
2022/05/31 04:43:07;;;;;;;;;;;;;;;23.32;71.80;97029.13;592329;238;50227;-71
2022/05/31 04:45:49;;;;;;;;;;;;;;;23.32;71.88;97029.13;594177;238;48575;-71
2022/05/31 04:48:24;;;;;;;;;;;;;;;23.31;71.85;97032.91;594452;238;52029;-71
2022/05/31 04:50:52;;;;;;;;;;;;;;;23.31;71.98;97027.55;594882;238;68197;-71
2022/05/31 04:53:20;;;;;;;;;;;;;;;23.32;72.00;97034.49;594848;238;66379;-71
2022/05/31 04:55:52;;;;;;;;;;;;;;;23.32;71.46;97034.49;589922;238;49935;-72
2022/05/31 04:58:20;;;;;;;;;;;;;;;23.31;71.66;97032.91;594741;238;69017;-71
2022/05/31 05:00:48;;;;;;;;;;;;;;;23.32;71.31;97029.13;594776;238;65511;-71
2022/05/31 05:03:16;;;;;;;;;;;;;;;23.32;71.53;97029.13;594791;238;66907;-71
2022/05/31 05:05:43;;;;;;;;;;;;;;;23.31;71.79;97033.70;594760;238;68582;-71
2022/05/31 05:08:12;;;;;;;;;;;;;;;23.31;71.67;97039.06;594802;238;43909;-71
2022/05/31 05:10:46;;;;;;;;;;;;;;;23.32;71.77;97039.86;594804;238;68825;-71
2022/05/31 05:13:24;;;;;;;;;;;;;;;23.31;72.11;97040.95;594637;238;47293;-72
2022/05/31 05:15:57;;;;;;;;;;;;;;;23.31;71.88;97039.06;583516;238;45293;-67
2022/05/31 05:18:28;;;;;;;;;;;;;;;23.32;71.83;97050.58;594838;238;45288;-67
2022/05/31 05:20:56;;;;;;;;;;;;;;;23.31;72.45;97043.63;594795;238;66532;-67
2022/05/31 05:23:23;;;;;;;;;;;;;;;23.31;71.85;97043.63;594846;238;65379;-67
2022/05/31 05:25:53;;;;;;;;;;;;;;;23.31;71.89;97046.31;594704;238;46572;-67
2022/05/31 05:31:25;;;;;;;;;;;;;;;23.31;71.53;97051.67;589604;238;46598;-67
2022/05/31 05:33:55;;;;;;;;;;;;;;;23.30;71.58;97053.56;593979;238;47557;-67
2022/05/31 05:36:35;;;;;;;;;;;;;;;23.30;71.44;97047.38;593905;238;51826;-67
2022/05/31 05:39:02;;;;;;;;;;;;;;;23.30;71.92;97047.38;594371;238;64071;-67
2022/05/31 05:41:35;;;;;;;;;;;;;;;23.30;71.51;97053.56;594914;238;49711;-67
2022/05/31 05:44:16;;;;;;;;;;;;;;;23.30;71.53;97052.73;581787;238;49518;-67
2022/05/31 05:46:44;;;;;;;;;;;;;;;23.30;71.31;97047.38;594746;238;63052;-67
2022/05/31 05:49:12;;;;;;;;;;;;;;;23.30;71.92;97058.11;594797;238;69219;-67
2022/05/31 05:51:39;;;;;;;;;;;;;;;23.29;71.63;97054.62;594808;238;66553;-67
2022/05/31 05:54:27;;;;;;;;;;;;;;;23.30;71.39;97058.11;594792;238;47673;-65
2022/05/31 05:57:13;;;;;;;;;;;;;;;23.30;71.96;97058.11;594892;238;43281;-68
2022/05/31 05:59:59;;;;;;;;;;;;;;;23.29;71.15;97056.52;594845;238;43296;-68
2022/05/31 06:02:46;;;;;;;;;;;;;;;23.29;71.15;97062.67;594968;238;39093;-69
2022/05/31 06:05:17;;;;;;;;;;;;;;;23.29;71.87;97053.84;594073;238;45923;-69
2022/05/31 06:07:46;;;;;;;;;;;;;;;23.28;71.39;97057.61;594780;238;68263;-65
2022/05/31 06:10:15;;;;;;;;;;;;;;;23.26;71.99;97056.00;593588;233;63076;-69
2022/05/31 06:12:44;;;;;;;;;;;;;;;23.27;72.48;97064.83;584476;240;69252;-67
2022/05/31 06:15:13;;;;;;;;;;;;;;;23.28;71.90;97061.09;588419;240;69148;-66
2022/05/31 06:17:42;;;;;;;;;;;;;;;23.29;71.59;97072.61;588238;240;65431;-66
2022/05/31 06:20:10;;;;;;;;;;;;;;;23.29;71.29;97069.92;588298;240;66354;-67
2022/05/31 06:22:39;;;;;;;;;;;;;;;23.30;71.84;97066.15;588429;240;69248;-66
2022/05/31 06:25:10;;;;;;;;;;;;;;;23.31;72.18;97065.08;588147;240;45396;-66
2022/05/31 06:27:39;;;;;;;;;;;;;;;23.31;71.50;97060.52;587003;240;48512;-70
2022/05/31 06:30:07;;;;;;;;;;;;;;;23.36;70.20;97067.72;588490;240;68808;-69
2022/05/31 06:32:35;;;;;;;;;;;;;;;23.38;71.35;97066.34;588391;240;65374;-67
2022/05/31 06:35:02;;;;;;;;;;;;;;;23.39;72.99;97069.82;589058;239;66268;-68
2022/05/31 06:37:50;;;;;;;;;;;;;;;23.40;72.41;97068.73;589647;240;45963;-68
2022/05/31 06:40:19;;;;;;;;;;;;;;;23.41;72.67;97070.34;596743;236;63993;-72
2022/05/31 06:42:50;;;;;;;;;;;;;;;23.40;72.86;97063.36;589363;237;50348;-71
2022/05/31 06:45:23;;;;;;;;;;;;;;;23.41;72.96;97067.66;597230;237;50868;-72
2022/05/31 06:47:55;;;;;;;;;;;;;;;23.39;72.67;97062.57;597158;237;47757;-72
2022/05/31 06:50:25;;;;;;;;;;;;;;;23.41;72.25;97057.73;593761;237;48183;-72
2022/05/31 06:58:54;;;;;;;;;;;;;;;23.42;72.60;97050.48;598700;237;40104;-72
2022/05/31 07:01:30;;;;;;;;;;;;;;;23.41;73.44;97052.36;598517;237;65982;-71
2022/05/31 07:03:52;;;;;;;;;;;;;;;23.41;72.88;97046.20;598018;237;65955;-75
2022/05/31 07:06:19;;;;;;;;;;;;;;;23.40;72.87;97048.06;598528;237;68464;-73
2022/05/31 07:08:48;;;;;;;;;;;;;;;23.42;72.85;97045.91;598520;237;66356;-75
2022/05/31 07:11:23;;;;;;;;;;;;;;;23.43;71.65;97042.13;598401;237;42744;-74
2022/05/31 07:14:09;;;;;;;;;;;;;;;23.44;71.52;97051.00;598552;237;40122;-73
2022/05/31 07:16:54;;;;;;;;;;;;;;;23.43;71.26;97047.48;598569;237;40075;-74
2022/05/31 07:19:36;;;;;;;;;;;;;;;23.44;71.97;97049.11;598113;232;43789;-74
2022/05/31 07:22:04;;;;;;;;;;;;;;;23.45;72.62;97045.33;598486;237;68531;-74
2022/05/31 07:24:32;;;;;;;;;;;;;;;23.44;71.96;97041.06;598382;237;67797;-74
2022/05/31 07:27:05;;;;;;;;;;;;;;;23.45;73.14;97047.22;596249;237;46485;-74
2022/05/31 07:29:33;;;;;;;;;;;;;;;23.45;73.06;97047.22;598433;237;66665;-74
2022/05/31 07:32:01;;;;;;;;;;;;;;;23.45;72.83;97044.53;598434;237;67000;-74
2022/05/31 07:34:30;;;;;;;;;;;;;;;23.46;73.16;97046.13;597809;237;44181;-74
2022/05/31 07:36:58;;;;;;;;;;;;;;;23.45;72.81;97044.53;595251;238;69484;-75
2022/05/31 07:39:26;;;;;;;;;;;;;;;23.45;73.36;97047.22;594469;238;66050;-74
2022/05/31 07:41:54;;;;;;;;;;;;;;;23.44;73.23;97038.38;593951;239;65822;-74
2022/05/31 07:44:22;;;;;;;;;;;;;;;23.45;73.49;97039.17;599515;236;66336;-75
2022/05/31 07:46:50;;;;;;;;;;;;;;;23.44;73.39;97043.74;599795;236;68710;-75
2022/05/31 07:49:19;;;;;;;;;;;;;;;23.45;73.94;97052.58;599779;236;66005;-68
2022/05/31 07:51:48;;;;;;;;;;;;;;;23.45;74.04;97039.17;598788;236;50818;-67
2022/05/31 07:54:21;;;;;;;;;;;;;;;23.44;73.96;97048.31;581491;238;48499;-68
2022/05/31 07:58:30;;;;;;;;;;;;;;;23.44;74.54;97051.79;594038;238;39414;-67
2022/05/31 07:59:55;;;;;;;;;;;;;;;23.45;74.91;97044.53;593995;237;40907;-68
2022/05/31 08:02:28;;;;;;;;;;;;;;;23.44;74.68;97045.63;592122;237;48392;-68
2022/05/31 08:04:56;;;;;;;;;;;;;;;23.43;74.18;97042.13;597115;237;65600;-70
2022/05/31 08:07:23;;;;;;;;;;;;;;;23.45;74.78;97041.85;597125;237;68726;-69
2022/05/31 08:09:51;;;;;;;;;;;;;;;23.44;74.93;97042.95;597105;237;68535;-68
2022/05/31 08:12:18;;;;;;;;;;;;;;;23.44;75.48;97042.95;594296;237;65485;-69
2022/05/31 08:14:46;;;;;;;;;;;;;;;23.43;75.60;97041.33;592034;239;66471;-68
2022/05/31 08:17:13;;;;;;;;;;;;;;;23.43;75.30;97038.66;592246;239;66672;-68
2022/05/31 08:19:41;;;;;;;;;;;;;;;23.43;74.60;97044.02;592092;239;63053;-68
2022/05/31 08:22:08;;;;;;;;;;;;;;;23.43;75.40;97042.13;592088;239;66490;-68
2022/05/31 08:24:37;;;;;;;;;;;;;;;23.44;75.21;97037.59;592204;239;66097;-68
2022/05/31 08:27:04;;;;;;;;;;;;;;;23.44;75.27;97040.27;592055;239;63156;-68
2022/05/31 08:29:32;;;;;;;;;;;;;;;23.44;75.40;97033.02;592171;239;66497;-73
2022/05/31 08:31:59;;;;;;;;;;;;;;;23.45;75.59;97033.81;592200;239;66461;-68
2022/05/31 08:34:29;;;;;;;;;;;;;;;23.46;73.56;97032.72;592073;238;62996;-69
2022/05/31 08:36:56;;;;;;;;;;;;;;;23.45;74.59;97023.08;592156;239;68802;-68
2022/05/31 08:39:24;;;;;;;;;;;;;;;23.45;76.00;97031.13;592186;239;68237;-69
2022/05/31 08:41:53;;;;;;;;;;;;;;;23.43;75.89;97031.40;592052;239;65434;-68
2022/05/31 08:44:34;;;;;;;;;;;;;;;23.43;75.54;97026.03;592228;239;66521;-69
2022/05/31 08:47:05;;;;;;;;;;;;;;;23.42;75.22;97035.17;592153;239;69015;-68
2022/05/31 08:52:07;;;;;;;;;;;;;;;23.42;75.81;97027.13;581012;239;66403;-67
2022/05/31 08:57:22;;;;;;;;;;;;;;;23.41;75.91;97033.59;592234;239;65466;-68
2022/05/31 08:59:58;;;;;;;;;;;;;;;23.42;75.72;97029.81;592189;239;68855;-68
2022/05/31 09:02:30;;;;;;;;;;;;;;;23.41;76.10;97017.50;592113;239;68524;-69
2022/05/31 09:05:06;;;;;;;;;;;;;;;23.41;75.88;97017.50;591516;239;62626;-68
2022/05/31 09:07:35;;;;;;;;;;;;;;;23.41;75.87;97022.86;592054;239;68484;-69
2022/05/31 09:10:05;;;;;;;;;;;;;;;23.41;75.59;97022.86;591769;239;68576;-70
2022/05/31 09:12:45;;;;;;;;;;;;;;;23.42;75.34;97026.34;591851;239;65244;-67
2022/05/31 09:15:18;;;;;;;;;;;;;;;23.42;75.92;97029.02;592202;239;65202;-68
2022/05/31 09:17:56;;;;;;;;;;;;;;;23.42;75.59;97015.61;592180;239;66411;-68
2022/05/31 09:20:31;;;;;;;;;;;;;;;23.41;76.22;97022.07;592156;239;65198;-66
2022/05/31 09:22:59;;;;;;;;;;;;;;;23.41;75.65;97012.14;592188;239;66500;-70
2022/05/31 09:25:27;;;;;;;;;;;;;;;23.42;75.33;97012.93;592178;239;68526;-67
2022/05/31 09:27:55;;;;;;;;;;;;;;;23.45;71.69;97009.67;592190;239;64092;-69
2022/05/31 09:30:27;;;;;;;;;;;;;;;23.48;74.74;97011.77;592173;239;66438;-66
2022/05/31 09:33:12;;;;;;;;;;;;;;;23.47;75.10;97012.87;592257;239;66040;-67
2022/05/31 09:35:42;;;;;;;;;;;;;;;23.46;74.82;97008.57;593903;238;63164;-69
2022/05/31 09:38:27;;;;;;;;;;;;;;;23.46;70.58;97004.03;594651;238;68676;-70
2022/05/31 09:41:05;;;;;;;;;;;;;;;23.47;74.23;97000.25;594760;238;68468;-72
2022/05/31 09:43:35;;;;;;;;;;;;;;;23.47;74.30;97004.83;594413;238;66405;-68
2022/05/31 09:46:03;;;;;;;;;;;;;;;23.47;74.79;96999.46;594471;238;66530;-68
2022/05/31 09:48:31;;;;;;;;;;;;;;;23.47;73.05;96994.89;594419;238;66484;-69
2022/05/31 09:51:18;;;;;;;;;;;;;;;23.49;74.73;96991.94;594803;238;63046;-69
2022/05/31 09:59:35;;;;;;;;;;;;;;;23.45;75.01;96996.26;588942;238;47539;-69
2022/05/31 10:02:22;;;;;;;;;;;;;;;23.44;75.00;96984.74;594878;238;43232;-68
2022/05/31 10:04:51;;;;;;;;;;;;;;;23.44;75.52;96989.31;594681;238;69073;-68
2022/05/31 10:07:32;;;;;;;;;;;;;;;23.43;75.18;96993.85;594744;238;65369;-68
2022/05/31 10:10:10;;;;;;;;;;;;;;;23.43;74.97;96995.74;594807;238;66582;-68
2022/05/31 10:12:39;;;;;;;;;;;;;;;23.43;75.31;96988.48;594773;238;68614;-68
2022/05/31 10:15:10;;;;;;;;;;;;;;;23.44;75.14;96994.67;594701;238;65499;-68
2022/05/31 10:17:44;;;;;;;;;;;;;;;23.42;74.99;96991.47;593612;237;66537;-68
2022/05/31 10:20:15;;;;;;;;;;;;;;;23.42;74.86;96986.91;593012;238;51985;-69
2022/05/31 10:22:44;;;;;;;;;;;;;;;23.42;74.36;96980.75;594716;237;65810;-69
2022/05/31 10:25:31;;;;;;;;;;;;;;;23.43;74.91;96982.33;594149;236;44387;-68
2022/05/31 10:28:30;;;;;;;;;;;;;;;23.42;74.32;96986.11;597296;236;40393;-69
2022/05/31 10:31:04;;;;;;;;;;;;;;;23.42;74.77;96980.75;596952;237;65676;-69
2022/05/31 10:33:37;;;;;;;;;;;;;;;23.42;74.84;96980.75;597166;237;48788;-68
2022/05/31 10:36:06;;;;;;;;;;;;;;;23.42;74.63;96978.06;595958;236;68533;-68
2022/05/31 10:38:35;;;;;;;;;;;;;;;23.43;74.73;96979.65;591704;238;63227;-68
2022/05/31 10:41:05;;;;;;;;;;;;;;;23.44;71.03;96982.05;586523;242;68724;-69
2022/05/31 10:43:36;;;;;;;;;;;;;;;23.46;71.72;96981.75;585655;242;66485;-69
2022/05/31 10:46:05;;;;;;;;;;;;;;;23.46;73.66;96979.07;586178;242;63292;-69
2022/05/31 10:48:34;;;;;;;;;;;;;;;23.44;74.55;96974.02;586264;242;66469;-69
2022/05/31 10:51:03;;;;;;;;;;;;;;;23.45;74.49;96974.80;586329;242;66442;-70
2022/05/31 10:53:34;;;;;;;;;;;;;;;23.45;70.10;96966.76;586111;242;65542;-69
2022/05/31 10:56:09;;;;;;;;;;;;;;;23.45;73.99;96970.23;586172;242;68676;-69
2022/05/31 10:58:54;;;;;;;;;;;;;;;23.44;74.79;96965.17;586252;242;66489;-68
2022/05/31 11:01:38;;;;;;;;;;;;;;;23.43;74.72;96964.35;586147;242;65437;-69
2022/05/31 11:04:07;;;;;;;;;;;;;;;23.42;74.22;96964.66;586134;242;68767;-69
2022/05/31 11:06:36;;;;;;;;;;;;;;;23.42;74.53;96956.61;586106;242;68522;-67
2022/05/31 11:12:09;;;;;;;;;;;;;;;23.41;74.03;96955.81;586048;242;68750;-68
2022/05/31 11:14:48;;;;;;;;;;;;;;;23.41;73.39;96947.77;586204;242;68160;-68
2022/05/31 11:17:29;;;;;;;;;;;;;;;23.42;73.89;96945.88;586323;242;65595;-67
2022/05/31 11:19:57;;;;;;;;;;;;;;;23.42;73.21;96943.20;586387;242;66256;-69
2022/05/31 11:22:29;;;;;;;;;;;;;;;23.49;70.48;96940.97;586359;242;66217;-68
2022/05/31 11:25:07;;;;;;;;;;;;;;;23.50;73.59;96934.52;586326;242;63029;-68
2022/05/31 11:27:40;;;;;;;;;;;;;;;23.47;75.20;96929.73;586396;242;68526;-68
2022/05/31 11:30:25;;;;;;;;;;;;;;;23.46;75.69;96928.11;586381;242;68335;-68
2022/05/31 11:33:11;;;;;;;;;;;;;;;23.45;75.84;96937.25;586309;242;65443;-69
2022/05/31 11:35:56;;;;;;;;;;;;;;;23.45;76.11;96931.89;588371;236;68416;-68
2022/05/31 11:38:25;;;;;;;;;;;;;;;23.46;71.02;96930.80;588994;237;66492;-67
2022/05/31 11:41:02;;;;;;;;;;;;;;;23.48;73.90;96939.36;589193;238;65373;-70
2022/05/31 11:43:31;;;;;;;;;;;;;;;23.48;74.83;96942.04;589031;238;68496;-70
2022/05/31 11:46:06;;;;;;;;;;;;;;;23.47;75.85;96945.82;589186;237;68872;-69
2022/05/31 11:48:38;;;;;;;;;;;;;;;23.46;76.29;96941.52;589092;237;63224;-70
2022/05/31 11:51:10;;;;;;;;;;;;;;;23.44;75.83;96941.83;588959;237;66693;-70
2022/05/31 11:53:39;;;;;;;;;;;;;;;23.45;76.32;96937.25;588976;237;68554;-70
2022/05/31 11:56:17;;;;;;;;;;;;;;;23.45;76.63;96939.94;590218;237;65434;-68
2022/05/31 11:58:52;;;;;;;;;;;;;;;23.44;76.67;96932.98;589220;238;68686;-68
2022/05/31 12:01:27;;;;;;;;;;;;;;;23.44;76.42;96939.14;588969;238;68724;-67
2022/05/31 12:03:56;;;;;;;;;;;;;;;23.45;76.30;96950.66;588936;238;65294;-68
2022/05/31 12:06:37;;;;;;;;;;;;;;;23.45;76.63;96939.94;589401;237;68895;-68
2022/05/31 12:09:15;;;;;;;;;;;;;;;23.45;76.87;96943.41;592003;237;66590;-69
2022/05/31 12:11:47;;;;;;;;;;;;;;;23.45;76.70;96940.73;589106;237;64105;-69
2022/05/31 12:14:15;;;;;;;;;;;;;;;23.44;76.85;96941.03;589100;237;68668;-69
2022/05/31 12:16:43;;;;;;;;;;;;;;;23.45;76.74;96939.94;589300;237;68131;-69
2022/05/31 12:19:13;;;;;;;;;;;;;;;23.45;76.51;96934.58;589067;237;63026;-69
2022/05/31 12:21:42;;;;;;;;;;;;;;;23.45;77.05;96931.89;589100;238;68647;-69
2022/05/31 12:24:11;;;;;;;;;;;;;;;23.46;77.34;96938.84;589586;238;68567;-69
2022/05/31 12:26:43;;;;;;;;;;;;;;;23.45;76.80;96942.63;588981;238;63198;-69
2022/05/31 12:29:11;;;;;;;;;;;;;;;23.46;77.07;96941.52;589890;237;68589;-69
2022/05/31 12:31:40;;;;;;;;;;;;;;;23.45;73.77;96943.41;589039;238;66802;-68
2022/05/31 12:34:22;;;;;;;;;;;;;;;23.47;76.65;96948.50;589403;237;65182;-68
2022/05/31 12:36:57;;;;;;;;;;;;;;;23.47;77.28;96940.45;589025;237;68434;-68
2022/05/31 12:39:30;;;;;;;;;;;;;;;23.46;77.00;96930.80;589274;237;69422;-68
2022/05/31 12:41:55;;;;;;;;;;;;;;;23.45;76.36;96930.00;588960;237;63936;-68
2022/05/31 12:44:33;;;;;;;;;;;;;;;23.45;76.76;96926.53;589167;237;66306;-68
2022/05/31 12:47:20;;;;;;;;;;;;;;;23.46;76.89;96930.80;589091;237;68303;-68
2022/05/31 12:49:52;;;;;;;;;;;;;;;23.45;76.34;96921.16;589059;237;64175;-68
2022/05/31 12:55:15;;;;;;;;;;;;;;;23.47;76.59;96925.16;589489;237;68443;-68
2022/05/31 13:00:31;;;;;;;;;;;;;;;23.46;76.03;96933.48;589413;237;66966;-68
2022/05/31 13:02:59;;;;;;;;;;;;;;;23.46;76.66;96922.75;589304;237;66281;-69
2022/05/31 13:05:31;;;;;;;;;;;;;;;23.46;76.55;96928.11;589131;237;63064;-69
2022/05/31 13:08:12;;;;;;;;;;;;;;;23.45;76.28;96927.32;589056;238;68756;-69
2022/05/31 13:19:34;;;;;;;;;;;;;;;23.45;76.53;96935.36;589402;237;68355;-68
2022/05/31 13:21:14;;;;;;;;;;;;;;;23.47;76.46;96945.82;584654;237;63267;-67
2022/05/31 13:23:42;;;;;;;;;;;;;;;23.46;77.06;96945.03;589645;238;66135;-67
2022/05/31 13:26:17;;;;;;;;;;;;;;;23.46;76.80;96947.71;589003;238;68411;-67
2022/05/31 13:29:03;;;;;;;;;;;;;;;23.46;76.47;96949.56;589519;237;65401;-68
2022/05/31 13:31:37;;;;;;;;;;;;;;;23.46;76.81;96953.07;589346;239;68563;-67
2022/05/31 13:34:05;;;;;;;;;;;;;;;23.46;76.81;96950.39;589601;237;69281;-67
2022/05/31 13:36:34;;;;;;;;;;;;;;;23.46;76.44;96955.76;597341;236;63244;-67
2022/05/31 13:39:06;;;;;;;;;;;;;;;23.47;76.34;96956.55;596375;235;66349;-67
2022/05/31 13:41:33;;;;;;;;;;;;;;;23.47;76.35;96951.19;596781;236;68363;-67
2022/05/31 13:44:02;;;;;;;;;;;;;;;23.47;76.17;96948.50;597391;236;65321;-67
2022/05/31 13:46:40;;;;;;;;;;;;;;;23.47;76.30;96945.82;595459;237;66286;-67
2022/05/31 13:49:12;;;;;;;;;;;;;;;23.48;76.28;96944.72;594854;238;65897;-68